Huvudsida
METAR-TAF:

METAR-TAF

Flygplatser :

Rygge, Norge

Moss flygplats. Rygge

latitud: 59-23N, longitud: 010-47E, höjd: 5 m

Aktuellt väderrapport

Denna rapport gjordes för 1 timme och 9 minuter sedan, klockan 09:50 UTC
Vind 4 kt från väst
Temperatur -1°C
Fuktighet 93%
Tryck 985 hPa
Sikt 10 km eller mer
Mulet på en höjd av 1200 ft

METAR: ENRY 170950Z 28004KT 9999 OVC012 M01/M02 Q0985 NOSIG

Tid: 11:59 (10:59 UTC)

Väderprognos

Prognos gäller från 17 kl. 06 UTC till 18 kl. 06 UTC
Vind 5 kt varierande vindriktning
Sikt 10 km eller mer
Spridda moln på en höjd av 800 ft
Brutna moln på en höjd av 1500 ft
Temporärt
från 17 kl. 06 UTC till 18 kl. 06 UTC
Brutna moln på en höjd av 700 ft
Sannolikhet 30% :
Temporärt
från 17 kl. 06 UTC till 18 kl. 06 UTC
Sikt: 2000 m
Brutna moln på en höjd av 400 ft
lätt snö, fuktdis

TAF: ENRY 1706/1806 VRB05KT 9999 SCT008 BKN015 TEMPO 1706/1806 BKN007 PROB30 TEMPO 1706/1806 2000 -SN BR BKN004

Aktuella väderrapporter och prognoser från 4000 flygplatser (METAR- och TAF-rapporter).

De tillgängliga stationerna syns som gula och röda prickar på kartan.

För musen över prickarna för att se namnen på stationerna.

Klicka sedan för att få väderrapporter och prognoser.

För att ändra kartan: Klicka på de gröna knapparna med ett svart kors på för att zooma in; den gröna knappen med ett streck på för att zooma ut; eller på de gröna pilarna för angränsande kartor.


METAR-TAF: